Share

Hosin, República Checa

IJIHOU019 Alt 1427 ft | 49.18 °N, 14.70 °E | Change Station

Current weather conditions updated 43 seconds ago

Partly Cloudy
Parcialmente nublado
63.3 ° F
Sensación térmica 63.3 ° F
N
1.6
Viento Variable Viento desde SE
Gusts 4.5 mph
Amanecer 5:59 AM
Atardecer 8:02 PM
Luna Gibosa menguante

Mañana se prevé una temperatura muy similar a la de hoy. Chubascos tormentosos por la tarde..

Presión 29.62 pul
Visibilidad 6.2 Millas
Nubes Baja 5000 ft
Punto de rocío 46 ° F
Humedad 54%
Precipitaciones 0.00 pul
Espesor de la nieve No disponible.
UV 4 de una escala de 16
Polen No disponible.
Calidad del aire No disponible.
Flu Activity No disponible.
METAR LOWL 211420Z 08007KT 040V120 9999 FEW050 21/04 Q1003 NOSIG

More Conditions Fewer Conditions

Presión 29.62 pul
Visibilidad 6.2 Millas
Nubes Baja 5000 ft
Punto de rocío 46 ° F
Humedad 54%
Precipitaciones 0.00 pul
Espesor de la nieve No disponible.
UV 4 de una escala de 16
Polen No disponible.
Calidad del aire No disponible.
Flu Activity No disponible.
METAR LOWL 211420Z 08007KT 040V120 9999 FEW050 21/04 Q1003 NOSIG

More Conditions Fewer Conditions

10-Day Weather Forecast

Almanac

Astronomía

Apr. 21, 2014 Salida Puesta
Hora real 5:59 AM CEST 8:02 PM CEST
Crepúsculo civil 5:25 AM CEST 8:37 PM CEST
Crepúsculo náutico 4:43 AM CEST 9:19 PM CEST
Crepúsculo astronómico 3:56 AM CEST 10:07 PM CEST
Luna 1:27 AM CEST 10:59 AM CEST
Horas de luz 15h 11m
Horas de luz
14h 03m
Tomorrow will be 3m 24s longer.
Gibosa menguante, 58% of the Moon is Illuminated
Hoy
Gibosa menguante
Abr 22
Cuarto menguante
Abr 29
Nueva
May 6
Cuarto creciente
May 14
Luna llena

Extremos de hoy

Máximos del país Bajas del país

Community

  • Bright Eyes
    Bright Eyes
  • Snowy Robin
    Snowy Robin
  • Spring Crocus
    Spring Crocus
  • Sun Pillar and Geese
    Sun Pillar and Geese
  • Showers on the Way
    Showers on the Way

WunderPhotos

Upload Photos

1,703,649 ¡fotos cargadas!

Nearby

Calidad del aire

Not available.

Grosos de nieve

Not available.

Temperaturas de aguas costeras

Lugar Temperatura
Sin partes meteorológicos de las estaciones

Actividad de terremotos

Ciudad Distance Mag. Tiempo y dato
No hay informes recientes de la actividad sísmica.
Magnitud mínima muestra es 2,5.

Estaciones meteorológicas cercanas

Ubicación de la estación Temp. Punto de rocío Humedad Viento Precip. Alt Actualizado Tipo
Veseli nad Luznici 63.3 ° F 46 ° F 54% SE  a  1.6 mph 0.00 pul / hr 1427 ft 4:42 PM CEST Rapid Fire
Halamky 65.3 ° F 52 ° F 61% SO  a  5.7 mph 0.00 pul / hr 1512 ft 4:42 PM CEST Rapid Fire
Amut.NET, Pisek 63.3 ° F - 89% NE  a  4.9 mph 0.00 pul / hr 1351 ft 4:42 PM CEST Normal
Jindrichuv Hradec, Jindrichuv Hradec 65.7 ° F 17 ° F 15% ESE  a  1.0 mph 0.00 pul / hr 1600 ft 4:32 PM CEST Normal

Show More Stations Show Fewer Stations

What do you think?

We're not finished. Please let us know what you like, what you don't like, and what you are still missing.